Time;durP1;ratioP1;P1;durP2;ratioP2;P2;SDS_P1;SDS_P2;PMS_P1;PMS_P2;Temp;Humidity;BMP_temperature;BMP_pressure;BME280_temperature;BME280_humidity;BME280_pressure;Samples;Min_cycle;Max_cycle;Signal;HPM_P1;HPM_P2
2022/11/04 00:01:33;;;;;;;7.72;3.33;;;;;;;;;;5021155;28;20060;-71
2022/11/04 00:03:58;;;;;;;3.33;3.03;;;;;;;;;;5021334;28;20041;-71
2022/11/04 00:06:24;;;;;;;7.75;3.35;;;;;;;;;;5021569;28;20045;-71
2022/11/04 00:08:55;;;;;;;6.75;3.67;;;;;;;;;;5021975;28;20140;-71
2022/11/04 00:14:06;;;;;;;3.38;2.50;;;;;;;;;;5006623;28;20498;-71
2022/11/04 00:19:16;;;;;;;3.83;2.45;;;;;;;;;;5021974;28;20579;-71
2022/11/04 00:30:04;;;;;;;5.78;3.42;;;;;;;;;;5009685;28;20052;-71
2022/11/04 00:35:15;;;;;;;2.50;2.28;;;;;;;;;;5019857;28;20085;-71
2022/11/04 00:37:42;;;;;;;2.88;2.38;;;;;;;;;;5020271;28;20576;-71
2022/11/04 00:40:10;;;;;;;2.53;2.30;;;;;;;;;;5021195;28;20104;-71
2022/11/04 00:42:35;;;;;;;4.00;3.33;;;;;;;;;;5021520;28;20415;-72
2022/11/04 00:45:01;;;;;;;5.78;2.78;;;;;;;;;;5021366;28;20060;-71
2022/11/04 00:47:27;;;;;;;2.60;2.40;;;;;;;;;;5020190;28;20099;-71
2022/11/04 00:53:40;;;;;;;8.85;2.25;;;;;;;;;;5020586;28;20618;-71
2022/11/04 00:56:05;;;;;;;2.97;2.70;;;;;;;;;;5020574;28;20041;-71
2022/11/04 00:58:31;;;;;;;2.60;2.00;;;;;;;;;;5019589;28;20406;-71
2022/11/04 01:00:56;;;;;;;2.88;2.60;;;;;;;;;;5020531;28;20049;-71
2022/11/04 01:03:21;;;;;;;2.70;2.22;;;;;;;;;;5020521;28;20408;-71
2022/11/04 01:05:47;;;;;;;2.92;2.03;;;;;;;;;;5020078;28;20061;-71
2022/11/04 01:08:13;;;;;;;2.05;1.85;;;;;;;;;;5018308;28;20068;-71
2022/11/04 01:10:43;;;;;;;2.28;1.83;;;;;;;;;;5019184;28;20053;-71
2022/11/04 01:13:12;;;;;;;2.63;1.98;;;;;;;;;;5017980;28;20053;-71
2022/11/04 01:15:37;;;;;;;3.17;1.70;;;;;;;;;;5018047;28;20042;-71
2022/11/04 01:18:03;;;;;;;3.28;2.20;;;;;;;;;;5018621;28;20390;-71
2022/11/04 01:20:30;;;;;;;3.10;1.80;;;;;;;;;;5017057;28;20192;-71
2022/11/04 01:22:55;;;;;;;3.50;2.22;;;;;;;;;;5020478;28;20060;-71
2022/11/04 01:25:21;;;;;;;3.58;1.90;;;;;;;;;;5020941;28;20045;-71
2022/11/04 01:27:46;;;;;;;3.85;1.58;;;;;;;;;;5020234;28;20048;-70
2022/11/04 01:30:12;;;;;;;3.03;2.40;;;;;;;;;;5019963;28;20116;-71
2022/11/04 01:32:37;;;;;;;4.78;1.92;;;;;;;;;;5019355;28;20037;-70
2022/11/04 01:35:03;;;;;;;5.32;2.17;;;;;;;;;;5019803;28;20046;-71
2022/11/04 01:37:28;;;;;;;3.78;1.98;;;;;;;;;;5020334;28;20526;-71
2022/11/04 01:39:54;;;;;;;3.13;1.90;;;;;;;;;;5019073;28;20463;-70
2022/11/04 01:42:20;;;;;;;2.25;1.70;;;;;;;;;;5019588;28;20406;-70
2022/11/04 01:45:10;;;;;;;3.17;1.65;;;;;;;;;;5019679;28;20057;-70
2022/11/04 01:47:42;;;;;;;5.30;1.77;;;;;;;;;;5018901;28;20049;-71
2022/11/04 01:50:11;;;;;;;2.60;2.33;;;;;;;;;;5019858;28;20124;-70
2022/11/04 01:52:43;;;;;;;1.95;1.80;;;;;;;;;;5019915;28;20045;-70
2022/11/04 01:55:17;;;;;;;2.10;1.50;;;;;;;;;;5019007;28;20053;-70
2022/11/04 01:57:46;;;;;;;2.10;1.55;;;;;;;;;;5019071;28;20803;-70
2022/11/04 02:00:12;;;;;;;0.82;0.80;;;;;;;;;;5018759;28;20946;-70
2022/11/04 02:02:48;;;;;;;2.50;1.40;;;;;;;;;;5019153;28;20049;-70
2022/11/04 02:05:13;;;;;;;2.33;1.30;;;;;;;;;;5014074;28;20449;-70
2022/11/04 02:07:39;;;;;;;2.95;1.58;;;;;;;;;;5018632;28;20601;-70
2022/11/04 02:10:06;;;;;;;2.63;1.40;;;;;;;;;;5018700;28;20056;-70
2022/11/04 02:12:50;;;;;;;1.88;1.30;;;;;;;;;;5019852;28;20084;-70
2022/11/04 02:15:22;;;;;;;2.17;1.20;;;;;;;;;;5018749;28;20056;-70
2022/11/04 02:17:47;;;;;;;;;;;;;;;;;;5019590;28;20053;-70
2022/11/04 02:20:39;;;;;;;2.35;1.42;;;;;;;;;;5020264;28;19951;-70
2022/11/04 02:23:23;;;;;;;2.08;1.17;;;;;;;;;;5023453;28;20057;-70
2022/11/04 02:26:23;;;;;;;1.13;1.02;;;;;;;;;;5022915;28;20049;-70
2022/11/04 02:29:10;;;;;;;1.50;1.05;;;;;;;;;;5022898;28;20072;-70
2022/11/04 02:31:54;;;;;;;1.00;0.93;;;;;;;;;;5022572;28;20041;-70
2022/11/04 02:34:45;;;;;;;3.28;1.33;;;;;;;;;;5023491;28;20087;-70
2022/11/04 02:37:41;;;;;;;1.00;0.75;;;;;;;;;;5022389;28;20057;-70
2022/11/04 02:40:40;;;;;;;1.25;1.02;;;;;;;;;;5019999;28;20064;-68
2022/11/04 02:43:21;;;;;;;0.98;0.90;;;;;;;;;;5024016;28;20045;-68
2022/11/04 02:45:49;;;;;;;2.17;1.13;;;;;;;;;;5023261;28;20390;-71
2022/11/04 02:48:27;;;;;;;1.15;0.90;;;;;;;;;;5023084;28;20045;-70
2022/11/04 02:51:02;;;;;;;1.15;0.98;;;;;;;;;;5021858;28;20042;-69
2022/11/04 02:53:42;;;;;;;1.10;0.93;;;;;;;;;;5023570;28;20131;-69
2022/11/04 02:56:10;;;;;;;1.45;1.20;;;;;;;;;;5020349;28;20049;-69
2022/11/04 02:58:41;;;;;;;1.92;0.95;;;;;;;;;;5023350;28;20041;-70
2022/11/04 03:01:13;;;;;;;6.88;1.13;;;;;;;;;;5022671;28;20134;-69
2022/11/04 03:03:42;;;;;;;1.48;1.00;;;;;;;;;;5023124;28;20128;-70
2022/11/04 03:06:10;;;;;;;1.17;0.85;;;;;;;;;;5023341;28;20059;-70
2022/11/04 03:08:41;;;;;;;1.58;0.88;;;;;;;;;;5022826;28;20044;-70
2022/11/04 03:11:11;;;;;;;1.95;1.10;;;;;;;;;;5022017;28;20460;-70
2022/11/04 03:13:51;;;;;;;0.57;0.57;;;;;;;;;;5022938;28;20045;-70
2022/11/04 03:16:22;;;;;;;2.25;0.77;;;;;;;;;;5023226;28;20569;-70
2022/11/04 03:19:08;;;;;;;;;;;;;;;;;;5023314;28;20835;-70
2022/11/04 03:21:36;;;;;;;0.60;0.60;;;;;;;;;;5036488;28;19924;-70
2022/11/04 03:24:03;;;;;;;2.60;0.85;;;;;;;;;;5023016;28;20057;-70
2022/11/04 03:26:53;;;;;;;0.77;0.77;;;;;;;;;;5023069;28;20220;-70
2022/11/04 03:29:31;;;;;;;2.70;0.82;;;;;;;;;;5022775;28;20044;-70
2022/11/04 03:32:10;;;;;;;3.55;0.70;;;;;;;;;;5021337;28;20063;-70
2022/11/04 03:34:36;;;;;;;0.68;0.68;;;;;;;;;;5022798;28;20111;-70
2022/11/04 03:37:02;;;;;;;1.70;0.70;;;;;;;;;;5022770;28;20045;-69
2022/11/04 03:39:28;;;;;;;1.33;0.80;;;;;;;;;;5022673;28;20037;-69
2022/11/04 03:42:00;;;;;;;0.65;0.65;;;;;;;;;;5022320;28;20056;-70
2022/11/04 03:44:27;;;;;;;;;;;;;;;;;;5022112;28;20480;-70
2022/11/04 03:46:52;;;;;;;2.50;0.70;;;;;;;;;;5022725;28;19917;-70
2022/11/04 03:49:21;;;;;;;0.82;0.70;;;;;;;;;;5022293;28;20501;-69
2022/11/04 03:51:47;;;;;;;1.05;0.70;;;;;;;;;;5021878;28;20041;-70
2022/11/04 03:54:14;;;;;;;0.60;0.60;;;;;;;;;;5021784;28;20049;-69
2022/11/04 03:56:58;;;;;;;0.70;0.70;;;;;;;;;;5037574;28;20045;-69
2022/11/04 03:59:51;;;;;;;1.02;0.80;;;;;;;;;;5022390;28;20517;-69
2022/11/04 04:02:25;;;;;;;4.70;0.98;;;;;;;;;;5019521;28;20054;-70
2022/11/04 04:05:20;;;;;;;0.60;0.60;;;;;;;;;;5021044;28;20053;-70
2022/11/04 04:08:04;;;;;;;3.28;0.70;;;;;;;;;;5018030;28;21077;-70
2022/11/04 04:10:52;;;;;;;1.33;0.95;;;;;;;;;;5021251;28;20053;-70
2022/11/04 04:13:21;;;;;;;0.85;0.70;;;;;;;;;;5022412;28;20056;-69
2022/11/04 04:15:50;;;;;;;1.10;1.00;;;;;;;;;;5021608;28;20051;-70
2022/11/04 04:18:21;;;;;;;1.00;0.82;;;;;;;;;;5019825;28;20045;-69
2022/11/04 04:20:49;;;;;;;1.45;0.88;;;;;;;;;;5021623;28;20037;-69
2022/11/04 04:28:55;;;;;;;1.10;0.65;;;;;;;;;;5020989;28;20136;-69
2022/11/04 04:34:08;;;;;;;0.77;0.60;;;;;;;;;;5019243;28;20041;-68
2022/11/04 04:36:44;;;;;;;1.38;0.80;;;;;;;;;;5021866;28;20391;-69
2022/11/04 04:47:43;;;;;;;0.90;0.70;;;;;;;;;;5021489;28;20076;-70
2022/11/04 04:50:11;;;;;;;2.65;0.70;;;;;;;;;;5017562;28;20067;-69
2022/11/04 04:52:40;;;;;;;1.05;0.77;;;;;;;;;;5021290;28;20111;-69
2022/11/04 04:55:06;;;;;;;2.88;0.60;;;;;;;;;;5021376;28;20049;-69
2022/11/04 04:57:32;;;;;;;0.77;0.63;;;;;;;;;;5021027;28;20571;-69
2022/11/04 04:59:57;;;;;;;1.13;0.55;;;;;;;;;;5019569;28;20132;-69
2022/11/04 05:02:23;;;;;;;0.75;0.68;;;;;;;;;;5019942;28;20481;-69
2022/11/04 05:04:48;;;;;;;1.27;0.60;;;;;;;;;;5017291;28;20057;-70
2022/11/04 05:07:14;;;;;;;0.80;0.80;;;;;;;;;;5020748;28;20129;-69
2022/11/04 05:09:39;;;;;;;0.80;0.80;;;;;;;;;;5018865;28;20375;-70
2022/11/04 05:12:05;;;;;;;0.55;0.55;;;;;;;;;;5019296;28;20433;-70
2022/11/04 05:14:30;;;;;;;0.52;0.52;;;;;;;;;;5020147;28;20037;-70
2022/11/04 05:16:56;;;;;;;0.75;0.60;;;;;;;;;;5020017;28;20111;-70
2022/11/04 05:19:21;;;;;;;1.70;0.50;;;;;;;;;;5019657;28;20068;-70
2022/11/04 05:21:47;;;;;;;0.80;0.70;;;;;;;;;;5001437;28;20390;-70
2022/11/04 05:24:12;;;;;;;2.10;0.60;;;;;;;;;;5019030;28;20132;-70
2022/11/04 05:26:38;;;;;;;1.00;0.50;;;;;;;;;;5020304;28;20494;-70
2022/11/04 05:29:03;;;;;;;0.47;0.47;;;;;;;;;;5019450;28;20072;-70
2022/11/04 05:31:29;;;;;;;3.72;0.52;;;;;;;;;;5019887;28;20160;-70
2022/11/04 05:33:56;;;;;;;1.23;0.75;;;;;;;;;;5018157;28;20087;-70
2022/11/04 05:36:22;;;;;;;0.47;0.47;;;;;;;;;;5019534;28;20485;-69
2022/11/04 05:38:52;;;;;;;0.60;0.60;;;;;;;;;;5019403;28;20068;-69
2022/11/04 05:41:24;;;;;;;0.50;0.50;;;;;;;;;;5019802;28;20155;-69
2022/11/04 05:44:01;;;;;;;3.08;0.55;;;;;;;;;;5020116;28;20084;-70
2022/11/04 05:46:27;;;;;;;5.45;1.08;;;;;;;;;;5019262;28;20045;-69
2022/11/04 05:48:52;;;;;;;1.98;0.60;;;;;;;;;;5020328;28;20053;-70
2022/11/04 05:51:22;;;;;;;0.80;0.70;;;;;;;;;;5020686;28;20045;-69
2022/11/04 05:53:48;;;;;;;2.08;0.80;;;;;;;;;;5019290;28;20122;-71
2022/11/04 05:56:13;;;;;;;2.15;0.77;;;;;;;;;;5018133;28;20502;-68
2022/11/04 05:58:39;;;;;;;1.80;0.80;;;;;;;;;;5014430;28;20077;-70
2022/11/04 06:01:37;;;;;;;1.10;0.70;;;;;;;;;;5015502;28;20099;-71
2022/11/04 06:04:04;;;;;;;0.98;0.70;;;;;;;;;;5016852;28;20076;-71
2022/11/04 06:06:32;;;;;;;3.40;0.60;;;;;;;;;;5018747;28;20088;-70
2022/11/04 06:08:59;;;;;;;1.27;0.70;;;;;;;;;;5019034;28;20049;-70
2022/11/04 06:11:26;;;;;;;0.80;0.68;;;;;;;;;;5019226;28;20061;-70
2022/11/04 06:13:53;;;;;;;1.20;0.95;;;;;;;;;;5018391;28;20065;-70
2022/11/04 06:16:19;;;;;;;0.55;0.55;;;;;;;;;;5017093;28;20068;-70
2022/11/04 06:18:44;;;;;;;2.33;0.70;;;;;;;;;;5016781;28;20728;-70
2022/11/04 06:21:26;;;;;;;1.77;0.70;;;;;;;;;;5017141;28;20049;-71
2022/11/04 06:23:54;;;;;;;1.13;0.68;;;;;;;;;;5017572;28;20553;-71
2022/11/04 06:26:20;;;;;;;0.63;0.63;;;;;;;;;;5018041;28;20362;-70
2022/11/04 06:28:46;;;;;;;1.83;0.50;;;;;;;;;;5017190;28;20046;-70
2022/11/04 06:31:12;;;;;;;0.80;0.70;;;;;;;;;;5018845;28;20402;-71
2022/11/04 06:33:38;;;;;;;0.98;0.50;;;;;;;;;;5018556;28;20107;-70
2022/11/04 06:36:06;;;;;;;1.67;0.82;;;;;;;;;;5019604;28;20049;-70
2022/11/04 06:38:34;;;;;;;1.60;1.50;;;;;;;;;;5017690;28;20083;-70
2022/11/04 06:40:59;;;;;;;1.08;0.80;;;;;;;;;;5017554;28;20042;-70
2022/11/04 06:43:25;;;;;;;1.95;0.75;;;;;;;;;;5018827;28;20044;-71
2022/11/04 06:45:54;;;;;;;1.45;1.00;;;;;;;;;;5008589;28;20044;-70
2022/11/04 06:48:19;;;;;;;0.80;0.75;;;;;;;;;;5013781;28;20482;-71
2022/11/04 06:50:45;;;;;;;0.70;0.70;;;;;;;;;;5015957;28;20045;-70
2022/11/04 06:53:10;;;;;;;2.03;0.70;;;;;;;;;;5014488;28;20065;-70
2022/11/04 06:55:35;;;;;;;0.90;0.70;;;;;;;;;;5016091;28;20049;-70
2022/11/04 06:58:01;;;;;;;1.70;1.10;;;;;;;;;;5016634;28;20053;-70
2022/11/04 07:00:26;;;;;;;1.17;0.90;;;;;;;;;;5016000;28;20080;-70
2022/11/04 07:02:52;;;;;;;1.90;0.80;;;;;;;;;;5016291;28;20057;-70
2022/11/04 07:05:17;;;;;;;2.60;0.77;;;;;;;;;;5016849;28;20084;-69
2022/11/04 07:07:43;;;;;;;0.70;0.70;;;;;;;;;;5017012;28;20049;-69
2022/11/04 07:10:08;;;;;;;0.85;0.80;;;;;;;;;;5021990;28;20057;-69
2022/11/04 07:12:34;;;;;;;2.47;0.80;;;;;;;;;;5021514;28;20042;-69
2022/11/04 07:14:59;;;;;;;1.08;0.73;;;;;;;;;;5022495;28;20048;-69
2022/11/04 07:17:25;;;;;;;1.80;0.80;;;;;;;;;;5022402;28;20041;-70
2022/11/04 07:19:50;;;;;;;0.88;0.80;;;;;;;;;;5021793;28;20098;-68
2022/11/04 07:22:16;;;;;;;0.85;0.60;;;;;;;;;;5022255;28;20063;-69
2022/11/04 07:24:42;;;;;;;2.22;0.93;;;;;;;;;;5020785;28;20041;-70
2022/11/04 07:27:08;;;;;;;2.45;0.77;;;;;;;;;;5020719;28;20050;-70
2022/11/04 07:29:33;;;;;;;2.75;0.80;;;;;;;;;;5020915;28;20061;-71
2022/11/04 07:31:59;;;;;;;2.13;0.70;;;;;;;;;;5022067;28;20063;-70
2022/11/04 07:34:24;;;;;;;0.95;0.85;;;;;;;;;;5021372;28;20061;-71
2022/11/04 07:36:50;;;;;;;2.40;1.00;;;;;;;;;;5020532;28;20465;-70
2022/11/04 07:39:15;;;;;;;1.98;0.70;;;;;;;;;;5022698;28;20060;-70
2022/11/04 07:41:40;;;;;;;0.60;0.60;;;;;;;;;;5021334;28;20053;-70
2022/11/04 07:44:06;;;;;;;4.38;0.88;;;;;;;;;;5022661;28;20045;-70
2022/11/04 07:46:32;;;;;;;2.83;0.68;;;;;;;;;;5020600;28;20049;-69
2022/11/04 07:48:58;;;;;;;1.40;0.75;;;;;;;;;;5021988;28;20041;-69
2022/11/04 07:51:24;;;;;;;6.72;0.82;;;;;;;;;;5022294;28;20517;-69
2022/11/04 07:53:49;;;;;;;0.70;0.70;;;;;;;;;;5020334;28;20060;-69
2022/11/04 07:56:15;;;;;;;1.52;0.80;;;;;;;;;;5021389;28;20140;-70
2022/11/04 07:58:41;;;;;;;3.53;1.08;;;;;;;;;;5014537;28;20053;-69
2022/11/04 08:01:16;;;;;;;1.20;1.00;;;;;;;;;;5019763;28;20052;-69
2022/11/04 08:03:42;;;;;;;2.63;0.73;;;;;;;;;;5019578;28;20037;-69
2022/11/04 08:06:11;;;;;;;0.88;0.77;;;;;;;;;;5020007;28;20099;-69
2022/11/04 08:08:36;;;;;;;1.33;0.70;;;;;;;;;;5019082;28;20407;-70
2022/11/04 08:11:08;;;;;;;2.83;1.10;;;;;;;;;;5018819;28;20482;-70
2022/11/04 08:13:35;;;;;;;;;;;;;;;;;;5019246;28;20045;-70
2022/11/04 08:16:03;;;;;;;3.45;1.92;;;;;;;;;;5019033;28;19925;-69
2022/11/04 08:18:30;;;;;;;2.22;1.05;;;;;;;;;;5018303;28;20064;-69
2022/11/04 08:20:55;;;;;;;3.80;1.10;;;;;;;;;;5018949;28;20077;-69
2022/11/04 08:23:20;;;;;;;3.05;1.08;;;;;;;;;;5019505;28;20175;-69
2022/11/04 08:25:46;;;;;;;3.17;1.60;;;;;;;;;;5019443;28;20049;-69
2022/11/04 08:28:16;;;;;;;2.13;1.60;;;;;;;;;;5016639;28;20048;-69
2022/11/04 08:31:05;;;;;;;2.67;1.13;;;;;;;;;;5018579;28;20061;-69
2022/11/04 08:33:32;;;;;;;6.70;1.40;;;;;;;;;;5019965;28;20686;-69
2022/11/04 08:36:00;;;;;;;1.58;0.90;;;;;;;;;;5019654;28;20053;-69
2022/11/04 08:38:27;;;;;;;1.60;0.95;;;;;;;;;;5020501;28;20060;-69
2022/11/04 08:40:58;;;;;;;2.08;0.85;;;;;;;;;;5018578;28;20053;-69
2022/11/04 08:43:24;;;;;;;2.05;0.90;;;;;;;;;;5019593;28;20052;-68
2022/11/04 08:45:51;;;;;;;1.45;0.88;;;;;;;;;;5018952;28;20395;-68
2022/11/04 08:48:16;;;;;;;2.70;0.70;;;;;;;;;;5020473;28;20557;-69
2022/11/04 08:50:42;;;;;;;1.20;0.60;;;;;;;;;;5019509;28;20041;-69
2022/11/04 08:53:08;;;;;;;1.10;0.70;;;;;;;;;;5019586;28;20047;-69
2022/11/04 08:55:34;;;;;;;1.85;0.50;;;;;;;;;;5020016;28;20506;-68
2022/11/04 08:58:00;;;;;;;1.55;0.60;;;;;;;;;;5018722;28;20051;-69
2022/11/04 09:00:25;;;;;;;1.95;0.52;;;;;;;;;;5019868;28;20513;-68
2022/11/04 09:02:51;;;;;;;0.93;0.70;;;;;;;;;;5018679;28;20049;-68
2022/11/04 09:05:17;;;;;;;1.00;0.70;;;;;;;;;;5016805;28;20618;-68
2022/11/04 09:07:43;;;;;;;1.92;0.82;;;;;;;;;;5017202;28;21101;-68
2022/11/04 09:10:09;;;;;;;2.78;0.93;;;;;;;;;;5019592;28;20045;-69
2022/11/04 09:12:35;;;;;;;1.42;0.70;;;;;;;;;;5018458;28;20976;-68
2022/11/04 09:15:01;;;;;;;2.15;0.88;;;;;;;;;;5018945;28;20045;-69
2022/11/04 09:17:26;;;;;;;1.70;0.82;;;;;;;;;;5019022;28;20053;-69
2022/11/04 09:19:51;;;;;;;9.10;1.10;;;;;;;;;;5018781;28;20043;-69
2022/11/04 09:22:17;;;;;;;3.33;0.98;;;;;;;;;;5019345;28;20136;-69
2022/11/04 09:24:43;;;;;;;0.50;0.50;;;;;;;;;;5017021;28;20049;-68
2022/11/04 09:27:08;;;;;;;0.75;0.60;;;;;;;;;;5018805;28;20140;-69
2022/11/04 09:29:35;;;;;;;1.50;0.63;;;;;;;;;;5017501;28;20063;-71
2022/11/04 09:32:03;;;;;;;0.50;0.50;;;;;;;;;;5019297;28;20644;-68
2022/11/04 09:34:29;;;;;;;1.17;0.50;;;;;;;;;;5019321;28;20037;-69
2022/11/04 09:36:55;;;;;;;0.70;0.70;;;;;;;;;;5018093;28;20160;-69
2022/11/04 09:39:22;;;;;;;4.13;0.65;;;;;;;;;;5019007;28;20072;-70
2022/11/04 09:42:01;;;;;;;0.88;0.85;;;;;;;;;;5016961;28;20406;-70
2022/11/04 09:44:51;;;;;;;3.30;0.70;;;;;;;;;;5018790;28;20045;-69
2022/11/04 09:47:17;;;;;;;0.40;0.40;;;;;;;;;;5009573;28;20049;-69
2022/11/04 09:49:46;;;;;;;2.45;0.47;;;;;;;;;;5017870;28;20068;-69
2022/11/04 09:52:20;;;;;;;0.63;0.50;;;;;;;;;;5017040;28;20095;-69
2022/11/04 09:55:14;;;;;;;1.45;0.70;;;;;;;;;;5018100;28;20052;-69
2022/11/04 09:57:39;;;;;;;1.10;0.43;;;;;;;;;;5015388;28;20140;-70
2022/11/04 10:00:07;;;;;;;0.50;0.40;;;;;;;;;;5017681;28;20409;-69
2022/11/04 10:02:50;;;;;;;1.08;0.60;;;;;;;;;;5015446;28;20045;-70
2022/11/04 10:05:39;;;;;;;2.47;0.98;;;;;;;;;;5014920;28;20064;-70
2022/11/04 10:08:23;;;;;;;1.00;0.70;;;;;;;;;;5013389;28;20045;-69
2022/11/04 10:11:04;;;;;;;1.58;0.98;;;;;;;;;;5016117;28;20053;-69
2022/11/04 10:13:33;;;;;;;2.33;1.27;;;;;;;;;;5017307;28;20468;-70
2022/11/04 10:16:17;;;;;;;1.17;0.85;;;;;;;;;;5015649;28;20136;-70
2022/11/04 10:19:01;;;;;;;1.75;1.00;;;;;;;;;;5016557;28;20064;-69
2022/11/04 10:21:35;;;;;;;2.85;1.00;;;;;;;;;;5015789;28;20076;-69
2022/11/04 10:24:22;;;;;;;3.20;0.95;;;;;;;;;;5016490;28;20140;-69
2022/11/04 10:27:03;;;;;;;1.70;1.00;;;;;;;;;;5016347;28;20152;-69
2022/11/04 10:29:39;;;;;;;1.42;0.95;;;;;;;;;;5016576;28;20040;-69
2022/11/04 10:32:23;;;;;;;2.67;1.17;;;;;;;;;;5012631;28;20103;-69
2022/11/04 10:35:01;;;;;;;0.90;0.90;;;;;;;;;;5016592;28;20061;-69
2022/11/04 10:37:27;;;;;;;2.17;0.70;;;;;;;;;;5016621;28;20379;-69
2022/11/04 10:40:08;;;;;;;1.83;0.80;;;;;;;;;;5016703;28;20049;-68
2022/11/04 10:42:33;;;;;;;0.60;0.60;;;;;;;;;;5020095;28;20041;-71
2022/11/04 10:44:59;;;;;;;6.07;1.50;;;;;;;;;;5021465;28;20056;-70
2022/11/04 10:47:41;;;;;;;2.22;0.60;;;;;;;;;;5021216;28;20128;-69
2022/11/04 10:50:33;;;;;;;0.85;0.85;;;;;;;;;;5018216;28;20045;-68
2022/11/04 10:53:09;;;;;;;;;;;;;;;;;;5021121;28;20144;-69
2022/11/04 10:55:53;;;;;;;1.58;0.88;;;;;;;;;;5020726;28;20016;-70
2022/11/04 10:58:30;;;;;;;2.90;1.15;;;;;;;;;;5020902;28;20570;-69
2022/11/04 11:00:56;;;;;;;2.67;1.80;;;;;;;;;;5019832;28;20099;-69
2022/11/04 11:03:31;;;;;;;2.15;1.20;;;;;;;;;;5020259;28;20053;-69
2022/11/04 11:06:13;;;;;;;1.30;1.17;;;;;;;;;;5020373;28;20045;-69
2022/11/04 11:08:41;;;;;;;1.10;1.00;;;;;;;;;;5020598;28;20099;-71
2022/11/04 11:11:07;;;;;;;1.55;1.20;;;;;;;;;;5021429;28;20037;-71
2022/11/04 11:13:36;;;;;;;5.50;2.55;;;;;;;;;;5020485;28;20045;-68
2022/11/04 11:16:07;;;;;;;1.17;1.00;;;;;;;;;;5019664;28;20076;-69
2022/11/04 11:18:33;;;;;;;1.88;1.23;;;;;;;;;;5020618;28;20128;-69
2022/11/04 11:21:07;;;;;;;2.20;0.88;;;;;;;;;;5020519;28;20050;-69
2022/11/04 11:23:38;;;;;;;1.40;1.27;;;;;;;;;;5021017;28;20037;-70
2022/11/04 11:26:06;;;;;;;1.10;0.98;;;;;;;;;;5019299;28;20113;-70
2022/11/04 11:28:36;;;;;;;0.80;0.80;;;;;;;;;;5020520;28;20140;-69
2022/11/04 11:31:10;;;;;;;1.30;1.20;;;;;;;;;;5020706;28;20048;-70
2022/11/04 11:33:40;;;;;;;2.47;1.08;;;;;;;;;;5019875;28;20126;-71
2022/11/04 11:36:11;;;;;;;3.65;1.30;;;;;;;;;;5021023;28;20060;-70
2022/11/04 11:38:50;;;;;;;1.13;0.80;;;;;;;;;;5020037;28;20045;-70
2022/11/04 11:41:20;;;;;;;2.08;1.10;;;;;;;;;;5020224;28;20045;-68
2022/11/04 11:43:50;;;;;;;2.17;1.30;;;;;;;;;;5018527;28;20045;-69
2022/11/04 11:46:24;;;;;;;1.20;1.10;;;;;;;;;;5019827;28;20053;-69
2022/11/04 11:48:52;;;;;;;1.48;1.10;;;;;;;;;;5019132;28;20057;-70
2022/11/04 11:51:27;;;;;;;2.58;1.30;;;;;;;;;;5020442;28;20107;-70
2022/11/04 11:54:24;;;;;;;2.78;1.50;;;;;;;;;;5018843;28;20046;-69
2022/11/04 11:56:54;;;;;;;1.98;1.33;;;;;;;;;;5019918;28;20049;-70
2022/11/04 11:59:24;;;;;;;1.10;0.90;;;;;;;;;;5019125;28;20064;-69
2022/11/04 12:02:19;;;;;;;1.23;0.80;;;;;;;;;;5018799;28;20049;-69
2022/11/04 12:04:45;;;;;;;0.95;0.88;;;;;;;;;;5018942;28;20048;-70
2022/11/04 12:07:31;;;;;;;0.95;0.60;;;;;;;;;;5022148;28;20390;-69
2022/11/04 12:10:18;;;;;;;0.60;0.60;;;;;;;;;;5020854;28;20053;-69
2022/11/04 12:13:18;;;;;;;0.68;0.60;;;;;;;;;;5020970;28;20049;-70
2022/11/04 12:15:46;;;;;;;1.65;0.80;;;;;;;;;;5020928;28;20111;-69
2022/11/04 12:18:29;;;;;;;0.95;0.70;;;;;;;;;;5021477;28;20144;-71
2022/11/04 12:21:03;;;;;;;2.45;0.70;;;;;;;;;;5020952;28;20096;-71
2022/11/04 12:23:29;;;;;;;0.80;0.77;;;;;;;;;;5022256;28;20037;-69
2022/11/04 12:26:01;;;;;;;0.75;0.70;;;;;;;;;;5026197;28;20387;-69
2022/11/04 12:29:01;;;;;;;2.00;0.75;;;;;;;;;;5022184;28;20041;-69
2022/11/04 12:31:31;;;;;;;2.58;0.80;;;;;;;;;;5021069;28;20061;-69
2022/11/04 12:34:12;;;;;;;1.30;0.65;;;;;;;;;;5021084;28;20048;-69
2022/11/04 12:37:07;;;;;;;1.08;0.90;;;;;;;;;;5020972;28;20165;-70
2022/11/04 12:39:53;;;;;;;0.70;0.70;;;;;;;;;;5019785;28;20049;-69
2022/11/04 12:42:32;;;;;;;1.10;0.70;;;;;;;;;;5016702;28;20045;-70
2022/11/04 12:45:29;;;;;;;0.60;0.60;;;;;;;;;;5021421;28;20045;-71
2022/11/04 12:48:03;;;;;;;2.00;0.90;;;;;;;;;;5020794;28;20072;-70
2022/11/04 12:50:47;;;;;;;1.10;0.90;;;;;;;;;;5021187;28;20091;-70
2022/11/04 12:53:22;;;;;;;1.10;0.90;;;;;;;;;;5020866;28;20068;-70
2022/11/04 12:56:10;;;;;;;3.10;1.10;;;;;;;;;;5021104;28;20049;-69
2022/11/04 12:58:47;;;;;;;1.15;1.00;;;;;;;;;;5021207;28;20050;-69
2022/11/04 13:01:22;;;;;;;1.13;1.02;;;;;;;;;;5020816;28;20053;-70
2022/11/04 13:03:53;;;;;;;3.13;1.10;;;;;;;;;;5020612;28;20053;-70
2022/11/04 13:07:00;;;;;;;0.50;0.50;;;;;;;;;;5020001;28;20053;-70
2022/11/04 13:09:44;;;;;;;0.80;0.80;;;;;;;;;;5017994;28;20155;-70
2022/11/04 13:12:16;;;;;;;1.20;1.00;;;;;;;;;;5017747;28;20138;-70
2022/11/04 13:15:01;;;;;;;2.05;1.05;;;;;;;;;;5021539;28;20494;-70
2022/11/04 13:17:38;;;;;;;3.08;1.00;;;;;;;;;;5019412;28;20049;-70
2022/11/04 13:20:20;;;;;;;2.30;0.93;;;;;;;;;;5020247;28;20060;-70
2022/11/04 13:22:47;;;;;;;;;;;;;;;;;;5021231;28;20124;-70
2022/11/04 13:25:18;;;;;;;2.50;0.70;;;;;;;;;;5017097;28;19921;-69
2022/11/04 13:27:46;;;;;;;0.60;0.60;;;;;;;;;;5019002;28;20060;-70
2022/11/04 13:30:26;;;;;;;1.27;0.57;;;;;;;;;;5019930;28;20064;-70
2022/11/04 13:33:02;;;;;;;1.50;0.80;;;;;;;;;;5021043;28;20490;-70
2022/11/04 13:35:40;;;;;;;0.85;0.75;;;;;;;;;;5019578;28;20132;-70
2022/11/04 13:38:11;;;;;;;1.00;0.90;;;;;;;;;;5007295;28;20054;-69
2022/11/04 13:41:18;;;;;;;1.55;1.00;;;;;;;;;;5020310;28;20037;-70
2022/11/04 13:43:56;;;;;;;0.50;0.50;;;;;;;;;;4990859;28;20084;-69
2022/11/04 13:46:27;;;;;;;3.25;0.70;;;;;;;;;;5020722;28;20051;-70
2022/11/04 13:48:53;;;;;;;1.13;0.50;;;;;;;;;;5018714;28;20057;-69
2022/11/04 13:51:18;;;;;;;3.40;0.80;;;;;;;;;;5019874;28;20103;-69
2022/11/04 13:53:56;;;;;;;0.70;0.70;;;;;;;;;;5020149;28;20045;-70
2022/11/04 13:56:33;;;;;;;0.40;0.40;;;;;;;;;;5016846;28;20080;-70
2022/11/04 13:59:27;;;;;;;2.03;0.50;;;;;;;;;;5020075;28;20072;-70
2022/11/04 14:02:11;;;;;;;2.65;0.47;;;;;;;;;;5020104;28;20041;-70
2022/11/04 14:04:46;;;;;;;6.85;0.70;;;;;;;;;;5019083;28;20351;-70
2022/11/04 14:07:16;;;;;;;1.92;0.60;;;;;;;;;;5020232;28;20073;-73
2022/11/04 14:09:42;;;;;;;2.35;0.60;;;;;;;;;;5019369;28;20854;-70
2022/11/04 14:12:10;;;;;;;0.73;0.60;;;;;;;;;;5019634;28;20053;-71
2022/11/04 14:14:48;;;;;;;2.05;0.82;;;;;;;;;;5020211;28;20056;-68
2022/11/04 14:17:32;;;;;;;0.80;0.80;;;;;;;;;;5022769;28;20041;-70
2022/11/04 14:20:06;;;;;;;0.60;0.60;;;;;;;;;;5022759;28;20053;-70
2022/11/04 14:22:47;;;;;;;0.73;0.70;;;;;;;;;;5023164;28;20158;-70
2022/11/04 14:25:21;;;;;;;0.60;0.60;;;;;;;;;;5023676;28;20045;-71
2022/11/04 14:27:52;;;;;;;0.73;0.73;;;;;;;;;;5023210;28;20096;-70
2022/11/04 14:30:35;;;;;;;0.88;0.57;;;;;;;;;;5023528;28;20049;-70
2022/11/04 14:33:05;;;;;;;0.70;0.60;;;;;;;;;;5021861;28;20045;-69
2022/11/04 14:35:32;;;;;;;2.05;1.15;;;;;;;;;;5023554;28;20940;-69
2022/11/04 14:38:05;;;;;;;5.70;1.13;;;;;;;;;;5023170;28;20123;-71
2022/11/04 14:40:49;;;;;;;3.35;0.90;;;;;;;;;;5038536;28;20045;-70
2022/11/04 14:43:35;;;;;;;1.80;0.80;;;;;;;;;;5023448;28;20049;-70
2022/11/04 14:46:01;;;;;;;3.08;0.50;;;;;;;;;;5021105;28;20151;-70
2022/11/04 14:48:28;;;;;;;1.25;0.70;;;;;;;;;;5022801;28;21064;-71
2022/11/04 14:50:55;;;;;;;1.23;0.50;;;;;;;;;;5022542;28;20959;-69
2022/11/04 14:53:36;;;;;;;2.90;0.60;;;;;;;;;;5023225;28;20081;-69
2022/11/04 14:56:19;;;;;;;0.93;0.60;;;;;;;;;;5022104;28;20111;-70
2022/11/04 14:59:02;;;;;;;0.70;0.60;;;;;;;;;;5022939;28;20045;-70
2022/11/04 15:01:31;;;;;;;0.50;0.50;;;;;;;;;;5022875;28;20041;-70
2022/11/04 15:04:11;;;;;;;1.92;0.60;;;;;;;;;;5022277;28;20053;-69
2022/11/04 15:06:36;;;;;;;1.40;0.90;;;;;;;;;;5022034;28;20053;-70
2022/11/04 15:09:02;;;;;;;2.05;0.85;;;;;;;;;;5023654;28;20060;-70
2022/11/04 15:14:16;;;;;;;3.80;1.00;;;;;;;;;;5020478;28;20058;-70
2022/11/04 15:16:46;;;;;;;0.70;0.70;;;;;;;;;;5022269;28;20054;-70
2022/11/04 15:19:19;;;;;;;0.80;0.80;;;;;;;;;;5023160;28;20390;-69
2022/11/04 15:21:48;;;;;;;0.85;0.85;;;;;;;;;;5022004;28;20045;-70
2022/11/04 15:24:16;;;;;;;2.38;1.38;;;;;;;;;;5022666;28;20045;-69
2022/11/04 15:26:47;;;;;;;1.50;1.40;;;;;;;;;;5018341;28;20037;-70
2022/11/04 15:29:15;;;;;;;3.08;1.67;;;;;;;;;;5017391;28;20823;-70
2022/11/04 15:31:55;;;;;;;1.58;1.08;;;;;;;;;;5021856;28;20044;-70
2022/11/04 15:34:23;;;;;;;3.33;1.20;;;;;;;;;;5022774;28;20037;-71
2022/11/04 15:36:49;;;;;;;1.02;0.90;;;;;;;;;;5022709;28;20616;-70
2022/11/04 15:39:45;;;;;;;3.38;1.10;;;;;;;;;;5021880;28;20064;-71
2022/11/04 15:45:26;;;;;;;1.50;1.13;;;;;;;;;;5022878;28;21242;-70
2022/11/04 15:48:28;;;;;;;1.65;1.25;;;;;;;;;;5021691;28;20073;-70
2022/11/04 15:51:08;;;;;;;1.63;1.10;;;;;;;;;;5021475;28;20049;-70
2022/11/04 15:53:46;;;;;;;1.23;1.00;;;;;;;;;;5022549;28;20041;-70
2022/11/04 15:56:15;;;;;;;1.77;1.27;;;;;;;;;;5019493;28;20053;-70
2022/11/04 15:58:43;;;;;;;1.95;1.20;;;;;;;;;;5022054;28;20374;-69